Time;durP1;ratioP1;P1;durP2;ratioP2;P2;SDS_P1;SDS_P2;PMS_P1;PMS_P2;Temp;Humidity;BMP_temperature;BMP_pressure;BME280_temperature;BME280_humidity;BME280_pressure;Samples;Min_cycle;Max_cycle;Signal;HPM_P1;HPM_P2
2022/10/22 00:02:06;;;;;;;;;0.33;0.33;;;;;18.00;71.35;100596.34;5081682;27;45458;-72
2022/10/22 00:04:32;;;;;;;;;2.00;0.00;;;;;18.01;71.79;100592.66;5092172;27;45380;-73
2022/10/22 00:06:58;;;;;;;;;1.00;0.67;;;;;17.90;71.63;100573.91;5059182;27;48008;-73
2022/10/22 00:09:24;;;;;;;;;1.33;0.00;;;;;18.01;71.50;100600.75;5071270;27;45627;-72
2022/10/22 00:11:50;;;;;;;;;0.67;0.67;;;;;18.03;71.77;100606.88;5085686;27;45291;-72
2022/10/22 00:14:15;;;;;;;;;0.00;0.00;;;;;18.05;71.96;100606.72;5082495;27;45278;-73
2022/10/22 00:16:41;;;;;;;;;0.00;0.00;;;;;18.03;71.75;100611.41;5092861;27;45273;-73
2022/10/22 00:19:08;;;;;;;;;0.67;0.00;;;;;17.96;72.26;100606.59;5078245;27;45457;-73
2022/10/22 00:21:34;;;;;;;;;0.67;0.67;;;;;17.98;72.33;100618.09;5088830;27;45384;-73
2022/10/22 00:23:59;;;;;;;;;1.67;1.00;;;;;17.98;72.32;100625.34;5086715;27;45460;-72
2022/10/22 00:26:24;;;;;;;;;1.33;1.33;;;;;17.94;72.56;100632.00;5080058;27;45446;-72
2022/10/22 00:28:50;;;;;;;;;1.00;1.00;;;;;17.95;72.23;100637.25;5123913;27;45380;-73
2022/10/22 00:31:15;;;;;;;;;1.00;1.00;;;;;17.93;72.49;100654.59;5080894;27;45391;-72
2022/10/22 00:33:41;;;;;;;;;0.33;0.33;;;;;17.82;72.40;100624.00;5086300;27;45456;-72
2022/10/22 00:36:07;;;;;;;;;1.00;1.00;;;;;17.96;72.58;100638.09;5087987;27;45346;-72
2022/10/22 00:38:33;;;;;;;;;0.00;0.00;;;;;17.95;72.44;100639.09;5078769;27;45408;-72
2022/10/22 00:40:58;;;;;;;;;3.33;1.00;;;;;17.72;72.40;100606.97;5090968;27;45363;-72
2022/10/22 00:43:25;;;;;;;;;2.25;0.50;;;;;17.92;72.45;100647.47;5114677;27;45406;-72
2022/10/22 00:45:51;;;;;;;;;0.67;0.67;;;;;17.95;72.96;100644.50;5084504;27;46123;-72
2022/10/22 00:48:34;;;;;;;;;0.00;0.00;;;;;17.59;72.37;100576.72;5087768;27;45480;-72
2022/10/22 00:51:03;;;;;;;;;2.00;0.67;;;;;17.97;72.00;100646.06;5082083;27;45506;-72
2022/10/22 00:53:44;;;;;;;;;2.33;1.00;;;;;17.67;72.64;100606.53;5083334;27;45437;-72
2022/10/22 00:56:10;;;;;;;;;0.00;0.00;;;;;17.92;72.60;100642.09;5077075;27;46394;-72
2022/10/22 00:58:41;;;;;;;;;0.00;0.00;;;;;17.92;72.83;100650.19;5093171;27;45734;-72
2022/10/22 01:01:15;;;;;;;;;1.00;1.00;;;;;17.92;72.71;100664.53;5081403;27;45433;-72
2022/10/22 01:03:40;;;;;;;;;0.33;0.33;;;;;17.93;72.94;100660.81;5088942;27;45479;-73
2022/10/22 01:06:06;;;;;;;;;1.00;1.00;;;;;17.92;72.72;100669.06;5088649;27;45730;-72
2022/10/22 01:08:59;;;;;;;;;2.33;0.67;;;;;17.88;72.80;100678.41;5075553;27;45414;-72
2022/10/22 01:11:49;;;;;;;;;1.00;1.00;;;;;17.88;73.03;100683.81;5070924;27;45394;-72
2022/10/22 01:14:42;;;;;;;;;1.00;1.00;;;;;17.82;72.91;100687.91;5083820;27;45376;-72
2022/10/22 01:17:33;;;;;;;;;0.00;0.00;;;;;17.81;72.71;100695.19;5065358;27;45601;-72
2022/10/22 01:20:11;;;;;;;;;1.00;1.00;;;;;17.74;73.04;100698.56;5002490;28;45388;-72
2022/10/22 01:23:00;;;;;;;;;0.00;0.00;;;;;17.75;72.68;100711.91;5011126;28;45559;-72
2022/10/22 01:25:36;;;;;;;;;1.00;1.00;;;;;17.64;72.72;100706.63;5000948;28;45410;-72
2022/10/22 01:28:08;;;;;;;;;2.33;0.67;;;;;17.66;73.17;100712.72;5002383;28;45707;-72
2022/10/22 01:30:36;;;;;;;;;1.00;0.67;;;;;17.64;73.15;100715.56;4997736;28;45412;-72
2022/10/22 01:33:05;;;;;;;;;0.00;0.00;;;;;17.63;73.04;100718.41;4981821;28;45381;-72
2022/10/22 01:35:38;;;;;;;;;1.25;1.25;;;;;17.63;72.95;100713.00;5006833;28;45325;-72
2022/10/22 01:38:08;;;;;;;;;1.00;0.00;;;;;16.77;72.46;100566.00;5006243;28;46410;-72
2022/10/22 01:40:34;;;;;;;;;1.33;0.00;;;;;17.65;72.89;100717.28;4999234;28;45403;-72
2022/10/22 01:43:03;;;;;;;;;0.67;0.67;;;;;17.66;73.01;100715.44;4986962;28;45455;-72
2022/10/22 01:45:33;;;;;;;;;2.00;1.00;;;;;17.02;72.75;100608.78;5006529;28;45508;-72
2022/10/22 01:48:15;;;;;;;;;0.00;0.00;;;;;17.66;72.81;100713.56;5005051;28;45497;-72
2022/10/22 01:51:39;;;;;;;;;1.00;0.00;;;;;17.70;72.84;100708.75;4996839;28;45388;-72
2022/10/22 01:54:25;;;;;;;;;2.00;0.67;;;;;17.69;72.75;100693.56;4948056;28;45519;-73
2022/10/22 01:57:06;;;;;;;;;1.67;1.00;;;;;17.47;72.50;100673.91;4981499;28;45539;-72
2022/10/22 01:59:39;;;;;;;;;0.00;0.00;;;;;17.54;72.42;100679.63;5020887;28;46785;-72
2022/10/22 02:02:27;;;;;;;;;0.67;0.67;;;;;17.74;72.42;100707.50;5021290;28;45512;-73
2022/10/22 02:05:11;;;;;;;;;1.00;1.00;;;;;17.75;72.48;100711.06;5013681;28;45543;-72
2022/10/22 02:07:45;;;;;;;;;0.00;0.00;;;;;17.70;72.56;100703.38;5022282;28;45461;-72
2022/10/22 02:10:12;;;;;;;;;1.67;1.33;;;;;17.80;72.38;100717.75;5015842;28;46391;-72
2022/10/22 02:12:39;;;;;;;;;0.00;0.00;;;;;17.83;72.23;100716.63;5029785;28;45418;-72
2022/10/22 02:15:07;;;;;;;;;0.00;0.00;;;;;17.84;72.64;100710.19;5017149;28;45537;-73
2022/10/22 02:17:36;;;;;;;;;1.50;1.00;;;;;17.90;72.29;100719.59;5009385;28;45531;-72
2022/10/22 02:20:15;;;;;;;;;0.33;0.33;;;;;17.90;72.22;100731.25;5013309;28;46771;-72
2022/10/22 02:22:41;;;;;;;;;0.00;0.00;;;;;17.89;72.52;100728.69;5029806;28;45480;-72
2022/10/22 02:25:08;;;;;;;;;0.50;0.00;;;;;17.89;72.17;100731.38;5017545;28;45425;-72
2022/10/22 02:28:01;;;;;;;;;0.33;0.33;;;;;17.88;72.43;100717.03;5029002;28;45645;-72
2022/10/22 02:30:26;;;;;;;;;2.00;1.00;;;;;16.88;72.66;100556.09;5079405;27;46207;-72
2022/10/22 02:33:10;;;;;;;;;2.00;0.00;;;;;17.97;72.46;100713.53;5091790;27;45386;-72
2022/10/22 02:35:39;;;;;;;;;1.00;1.00;;;;;17.93;72.71;100717.50;5084353;27;45581;-73
2022/10/22 02:38:06;;;;;;;;;1.00;0.00;;;;;17.98;72.41;100727.88;5082146;27;45476;-72
2022/10/22 02:40:31;;;;;;;;;1.67;0.33;;;;;17.96;72.17;100730.72;5091986;27;45309;-72
2022/10/22 02:42:57;;;;;;;;;0.00;0.00;;;;;17.40;72.66;100648.50;5077633;27;45389;-72
2022/10/22 02:45:23;;;;;;;;;2.00;0.33;;;;;17.90;72.60;100738.50;5088407;27;45383;-72
2022/10/22 02:47:48;;;;;;;;;0.00;0.00;;;;;17.64;72.91;100701.25;5086121;27;45444;-72
2022/10/22 02:50:13;;;;;;;;;1.00;1.00;;;;;17.73;72.87;100723.81;5081921;27;45365;-72
2022/10/22 02:52:39;;;;;;;;;0.33;0.33;;;;;17.78;72.81;100730.50;5092087;27;45397;-72
2022/10/22 02:55:05;;;;;;;;;0.67;0.67;;;;;17.63;73.42;100732.72;5078062;27;45452;-72
2022/10/22 02:57:31;;;;;;;;;1.00;0.00;;;;;17.85;73.06;100755.09;5088537;27;45470;-72
2022/10/22 02:59:56;;;;;;;;;0.00;0.00;;;;;17.66;73.52;100737.00;5086074;27;46234;-72
2022/10/22 03:02:22;;;;;;;;;0.00;0.00;;;;;17.85;73.36;100767.72;5081268;27;45558;-72
2022/10/22 03:04:47;;;;;;;;;1.67;1.00;;;;;17.43;73.47;100704.84;5092424;27;45791;-72
2022/10/22 03:07:13;;;;;;;;;1.00;0.00;;;;;17.71;73.12;100745.53;5113757;27;45408;-72
2022/10/22 03:09:38;;;;;;;;;1.00;1.00;;;;;17.53;73.82;100717.50;5085841;27;45322;-72
2022/10/22 03:12:04;;;;;;;;;1.33;0.00;;;;;17.50;73.73;100718.63;5086965;27;45294;-72
2022/10/22 03:14:29;;;;;;;;;1.00;1.00;;;;;17.69;73.99;100755.59;5079750;27;45427;-72
2022/10/22 03:16:55;;;;;;;;;1.50;0.00;;;;;17.56;73.84;100754.97;5092574;27;45549;-72
2022/10/22 03:19:20;;;;;;;;;2.00;1.00;;;;;17.77;74.39;100779.19;5081666;27;45620;-72
2022/10/22 03:21:54;;;;;;;;;0.00;0.00;;;;;17.80;74.23;100777.09;5086325;27;45343;-72
2022/10/22 03:24:35;;;;;;;;;0.00;0.00;;;;;17.79;74.72;100793.44;5088660;27;45588;-72
2022/10/22 03:27:01;;;;;;;;;0.00;0.00;;;;;17.80;74.15;100790.59;5077103;27;45656;-72
2022/10/22 03:29:27;;;;;;;;;0.75;0.00;;;;;17.57;74.32;100745.91;5086710;27;46080;-72
2022/10/22 03:31:53;;;;;;;;;1.00;1.00;;;;;17.58;74.43;100743.06;5085828;27;45390;-72
2022/10/22 03:34:19;;;;;;;;;1.00;1.00;;;;;17.44;74.28;100714.66;5081264;27;45439;-72
2022/10/22 03:36:46;;;;;;;;;2.00;1.00;;;;;17.73;74.03;100775.06;5091656;27;45328;-72
2022/10/22 03:39:13;;;;;;;;;1.33;1.00;;;;;17.86;74.93;100794.56;5074658;28;45377;-72
2022/10/22 03:41:39;;;;;;;;;0.00;0.00;;;;;17.89;74.72;100798.84;5075983;27;45380;-72
2022/10/22 03:44:05;;;;;;;;;0.67;0.00;;;;;17.56;74.49;100754.97;5076093;27;45447;-72
2022/10/22 03:46:30;;;;;;;;;2.00;1.00;;;;;17.87;74.66;100803.50;5074799;28;45425;-72
2022/10/22 03:48:55;;;;;;;;;1.00;1.00;;;;;17.54;74.33;100756.97;5057705;28;46129;-72
2022/10/22 03:51:21;;;;;;;;;0.00;0.00;;;;;17.89;74.26;100815.88;5057983;28;45386;-72
2022/10/22 03:53:46;;;;;;;;;2.33;0.33;;;;;17.84;74.49;100810.03;5075900;27;45355;-73
2022/10/22 03:56:12;;;;;;;;;0.00;0.00;;;;;17.81;74.74;100808.50;5076104;27;45521;-72
2022/10/22 03:58:39;;;;;;;;;0.00;0.00;;;;;17.69;75.40;100811.41;5075185;27;46217;-72
2022/10/22 04:01:09;;;;;;;;;3.00;0.33;;;;;17.74;75.63;100819.94;5075476;27;45425;-72
2022/10/22 04:03:35;;;;;;;;;0.00;0.00;;;;;17.27;75.35;100740.38;5075371;27;45481;-72
2022/10/22 04:06:06;;;;;;;;;1.00;1.00;;;;;17.76;75.55;100821.53;5074896;27;45393;-72
2022/10/22 04:08:32;;;;;;;;;1.33;0.00;;;;;17.46;75.73;100777.41;5075872;27;45460;-72
2022/10/22 04:10:57;;;;;;;;;0.00;0.00;;;;;17.71;75.65;100807.59;5074060;27;45818;-72
2022/10/22 04:13:23;;;;;;;;;1.67;1.00;;;;;17.78;75.60;100822.22;5076211;27;45345;-72
2022/10/22 04:15:50;;;;;;;;;2.00;0.00;;;;;17.55;75.72;100783.81;5073663;28;45468;-71
2022/10/22 04:18:19;;;;;;;;;0.67;0.00;;;;;17.71;75.80;100822.91;5073816;28;45608;-72
2022/10/22 04:20:44;;;;;;;;;1.33;0.00;;;;;17.62;75.76;100814.63;5075480;27;45353;-72
2022/10/22 04:23:10;;;;;;;;;0.67;0.00;;;;;17.77;76.06;100844.78;5075576;27;45294;-72
2022/10/22 04:25:35;;;;;;;;;0.33;0.33;;;;;17.48;76.13;100791.59;5094428;27;45393;-72
2022/10/22 04:28:01;;;;;;;;;1.67;1.00;;;;;17.73;76.08;100842.53;5078692;27;45310;-72
2022/10/22 04:30:26;;;;;;;;;3.00;0.00;;;;;17.78;76.22;100846.50;5078871;27;45257;-72
2022/10/22 04:32:52;;;;;;;;;1.00;0.00;;;;;17.78;76.03;100841.13;5077767;28;45323;-72
2022/10/22 04:35:17;;;;;;;;;0.67;0.00;;;;;17.74;75.87;100834.28;5077565;28;45356;-72
2022/10/22 04:37:42;;;;;;;;;0.00;0.00;;;;;17.76;76.49;100829.63;5078583;27;46167;-72
2022/10/22 04:40:08;;;;;;;;;0.00;0.00;;;;;17.32;75.86;100754.31;5078845;27;45347;-72
2022/10/22 04:42:34;;;;;;;;;3.33;1.00;;;;;17.44;76.25;100789.31;5079186;28;45330;-72
2022/10/22 04:44:59;;;;;;;;;1.67;0.00;;;;;17.79;75.79;100859.03;5078400;27;45453;-71
2022/10/22 04:47:24;;;;;;;;;1.67;0.00;;;;;17.80;76.02;100862.56;5078421;27;46357;-72
2022/10/22 04:49:50;;;;;;;;;1.33;0.00;;;;;17.82;75.96;100863.28;5077021;28;45470;-72
2022/10/22 04:52:15;;;;;;;;;0.00;0.00;;;;;17.80;75.98;100857.16;5078868;27;45345;-73
2022/10/22 04:54:40;;;;;;;;;1.00;1.00;;;;;17.51;75.76;100813.91;5077508;28;45444;-72
2022/10/22 04:57:06;;;;;;;;;4.00;1.00;;;;;17.82;75.93;100874.94;5092366;27;47693;-72
2022/10/22 04:59:31;;;;;;;;;1.00;1.00;;;;;17.75;75.76;100856.75;5079319;27;45432;-73
2022/10/22 05:01:56;;;;;;;;;3.75;1.75;;;;;17.86;76.17;100871.97;5068749;28;45515;-73
2022/10/22 05:04:22;;;;;;;;;0.00;0.00;;;;;17.83;76.11;100876.66;5041790;28;45477;-73
2022/10/22 05:06:47;;;;;;;;;0.67;0.00;;;;;17.84;76.57;100861.28;5059575;28;45957;-72
2022/10/22 05:09:16;;;;;;;;;1.33;0.67;;;;;17.46;75.85;100800.78;5041049;28;45426;-72
2022/10/22 05:11:47;;;;;;;;;0.75;0.50;;;;;17.87;75.79;100877.25;5058693;28;45549;-72
2022/10/22 05:14:16;;;;;;;;;1.00;1.00;;;;;17.69;76.06;100841.91;5040370;28;45628;-72
2022/10/22 05:16:41;;;;;;;;;3.00;1.00;;;;;17.19;76.32;100759.09;5058172;28;45611;-72
2022/10/22 05:19:07;;;;;;;;;1.00;1.00;;;;;17.93;76.15;100881.25;5039744;28;45360;-72
2022/10/22 05:21:33;;;;;;;;;0.00;0.00;;;;;17.75;76.51;100845.94;5058461;28;45307;-73
2022/10/22 05:23:59;;;;;;;;;2.00;0.00;;;;;17.93;76.46;100878.56;5057881;28;45375;-72
2022/10/22 05:26:27;;;;;;;;;1.00;1.00;;;;;17.37;76.32;100804.28;5057633;28;46428;-72
2022/10/22 05:28:52;;;;;;;;;1.00;0.00;;;;;17.93;76.35;100884.81;5058103;28;45486;-72
2022/10/22 05:31:18;;;;;;;;;0.00;0.00;;;;;17.95;76.32;100877.44;5057702;28;45425;-72
2022/10/22 05:33:44;;;;;;;;;4.00;2.00;;;;;17.76;76.30;100850.34;5056963;28;45367;-72
2022/10/22 05:36:16;;;;;;;;;1.67;0.33;;;;;17.90;76.05;100860.78;5056538;28;45934;-72
2022/10/22 05:38:41;;;;;;;;;1.00;1.00;;;;;17.91;75.99;100862.50;5038754;28;45402;-72
2022/10/22 05:41:10;;;;;;;;;0.00;0.00;;;;;17.44;76.11;100783.91;5056967;28;45791;-72
2022/10/22 05:43:36;;;;;;;;;0.00;0.00;;;;;18.01;76.27;100884.13;5038826;28;45289;-72
2022/10/22 05:46:04;;;;;;;;;0.00;0.00;;;;;18.00;75.83;100890.53;5038634;28;46196;-72
2022/10/22 05:48:29;;;;;;;;;1.00;1.00;;;;;17.75;76.39;100856.75;5038905;28;45492;-72
2022/10/22 05:50:55;;;;;;;;;0.67;0.67;;;;;17.94;76.40;100893.78;5056764;28;45779;-72
2022/10/22 05:53:20;;;;;;;;;1.33;1.00;;;;;17.85;76.49;100867.56;5057820;28;45402;-72
2022/10/22 05:55:46;;;;;;;;;0.00;0.00;;;;;17.97;76.50;100894.34;5059400;28;45707;-73
2022/10/22 05:58:12;;;;;;;;;1.00;1.00;;;;;17.97;76.75;100897.03;5057542;28;44810;-72
2022/10/22 06:00:37;;;;;;;;;1.33;0.67;;;;;17.94;76.59;100904.56;5069833;27;45452;-73
2022/10/22 06:03:03;;;;;;;;;2.33;1.00;;;;;17.87;76.36;100889.84;5077757;27;45360;-73
2022/10/22 06:05:28;;;;;;;;;1.67;1.00;;;;;17.97;76.13;100898.91;5078205;27;45428;-73
2022/10/22 06:07:55;;;;;;;;;1.00;1.00;;;;;17.90;76.58;100892.31;5093560;27;45506;-73
2022/10/22 06:10:21;;;;;;;;;0.67;0.67;;;;;17.77;76.45;100876.34;5077611;27;45364;-73
2022/10/22 06:12:47;;;;;;;;;0.25;0.25;;;;;17.66;76.29;100853.00;5077127;27;45504;-73
2022/10/22 06:15:16;;;;;;;;;0.00;0.00;;;;;17.99;76.46;100902.28;5077548;27;46257;-73
2022/10/22 06:17:43;;;;;;;;;4.00;2.00;;;;;17.99;75.98;100907.69;5078703;27;45456;-74
2022/10/22 06:20:10;;;;;;;;;2.00;1.00;;;;;17.56;76.33;100841.28;5079030;27;45297;-74
2022/10/22 06:22:35;;;;;;;;;2.00;1.00;;;;;17.95;76.03;100903.56;5078939;27;45534;-74
2022/10/22 06:25:00;;;;;;;;;2.00;1.00;;;;;17.95;75.69;100917.06;5079578;27;45307;-74
2022/10/22 06:27:26;;;;;;;;;2.00;2.00;;;;;18.00;76.09;100925.59;5079259;27;45278;-74
2022/10/22 06:29:51;;;;;;;;;1.00;1.00;;;;;17.67;76.28;100881.69;5079511;27;45292;-75
2022/10/22 06:32:16;;;;;;;;;1.67;1.00;;;;;17.97;76.12;100924.03;5079542;27;45354;-73
2022/10/22 06:34:42;;;;;;;;;2.00;1.00;;;;;17.99;75.97;100927.47;5079001;27;46111;-74
2022/10/22 06:37:08;;;;;;;;;4.00;1.67;;;;;17.99;76.44;100929.28;5078299;27;45323;-74
2022/10/22 06:39:34;;;;;;;;;3.00;1.33;;;;;18.00;76.14;100931.00;5079181;27;45377;-74
2022/10/22 06:41:59;;;;;;;;;0.00;0.00;;;;;18.01;76.03;100932.72;5078595;27;45458;-74
2022/10/22 06:44:24;;;;;;;;;1.00;1.00;;;;;18.05;76.08;100938.72;5078884;27;45403;-74
2022/10/22 06:46:51;;;;;;;;;2.00;1.00;;;;;17.92;76.00;100922.72;5077497;27;45373;-75
2022/10/22 06:49:16;;;;;;;;;2.25;2.00;;;;;18.15;76.22;100950.38;5078314;27;45389;-74
2022/10/22 06:51:42;;;;;;;;;1.00;0.00;;;;;18.16;75.47;100955.66;5067105;27;45574;-74
2022/10/22 06:54:07;;;;;;;;;3.33;1.00;;;;;17.74;75.62;100882.84;5067806;28;45443;-75
2022/10/22 06:56:33;;;;;;;;;1.00;1.00;;;;;18.19;75.65;100953.69;5076605;28;45422;-74
2022/10/22 06:58:58;;;;;;;;;4.50;2.00;;;;;18.20;75.35;100958.09;5078417;28;45557;-76
2022/10/22 07:01:27;;;;;;;;;0.67;0.67;;;;;18.25;75.10;100966.66;5078400;28;45415;-75
2022/10/22 07:03:53;;;;;;;;;3.00;3.00;;;;;18.09;75.18;100932.91;5078530;28;46298;-76
2022/10/22 07:06:20;;;;;;;;;3.00;1.00;;;;;18.27;75.01;100970.06;5077355;28;45349;-75
2022/10/22 07:08:45;;;;;;;;;2.00;1.00;;;;;18.34;75.37;100973.91;5071334;28;45368;-75
2022/10/22 07:11:12;;;;;;;;;4.75;2.25;;;;;18.10;74.34;100937.31;5076909;27;45440;-74
2022/10/22 07:13:37;;;;;;;;;2.67;0.67;;;;;18.18;74.00;100942.03;5077169;28;45732;-75
2022/10/22 07:16:04;;;;;;;;;3.00;1.00;;;;;18.42;74.34;100984.91;5077082;27;45599;-75
2022/10/22 07:18:32;;;;;;;;;2.00;1.00;;;;;18.12;73.80;100943.41;5086745;27;45472;-74
2022/10/22 07:20:58;;;;;;;;;0.67;0.67;;;;;18.40;74.21;100988.75;5056398;28;45477;-75
2022/10/22 07:23:24;;;;;;;;;0.67;0.33;;;;;18.47;74.20;101001.53;5056745;28;45447;-74
2022/10/22 07:25:50;;;;;;;;;2.00;1.00;;;;;18.13;74.17;100942.44;5072674;28;45436;-74
2022/10/22 07:28:15;;;;;;;;;2.00;1.00;;;;;18.47;73.85;101003.41;5074895;28;45476;-73
2022/10/22 07:30:40;;;;;;;;;2.33;1.33;;;;;18.51;73.42;101004.00;5077039;27;45487;-74
2022/10/22 07:33:06;;;;;;;;;1.33;0.33;;;;;18.54;73.04;101006.41;5075180;28;45560;-74
2022/10/22 07:35:33;;;;;;;;;1.00;1.00;;;;;18.54;73.11;101014.50;5077293;28;45422;-75
2022/10/22 07:37:59;;;;;;;;;1.00;1.00;;;;;18.51;73.01;100999.44;5077740;27;45399;-75
2022/10/22 07:40:24;;;;;;;;;3.00;1.00;;;;;18.55;73.00;101005.44;5077151;28;45417;-75
2022/10/22 07:42:49;;;;;;;;;1.33;1.33;;;;;18.69;72.52;101017.69;5077864;27;46210;-75
2022/10/22 07:45:15;;;;;;;;;1.00;1.00;;;;;18.62;71.84;101003.88;5077577;27;45444;-75
2022/10/22 07:47:40;;;;;;;;;2.00;2.00;;;;;18.60;72.51;101016.69;5077091;27;45417;-74
2022/10/22 07:50:06;;;;;;;;;1.00;1.00;;;;;18.72;71.38;101028.22;5076383;27;45931;-74
2022/10/22 07:52:32;;;;;;;;;2.50;1.75;;;;;18.72;71.66;101020.97;5077402;28;47270;-75
2022/10/22 07:54:57;;;;;;;;;2.00;0.67;;;;;18.47;71.73;100984.50;5077171;28;45420;-74
2022/10/22 07:57:23;;;;;;;;;3.67;1.67;;;;;18.63;71.47;101024.50;5077116;28;45407;-75
2022/10/22 07:59:48;;;;;;;;;2.67;1.00;;;;;18.65;72.24;101027.91;5076318;28;45444;-75
2022/10/22 08:02:13;;;;;;;;;1.33;0.67;;;;;18.73;72.51;101036.19;5076702;27;49670;-74
2022/10/22 08:04:39;;;;;;;;;2.00;1.00;;;;;18.74;72.42;101040.59;5077234;27;45399;-75
2022/10/22 08:07:05;;;;;;;;;1.00;1.00;;;;;18.24;72.16;100963.06;5076804;27;45349;-75
2022/10/22 08:09:30;;;;;;;;;0.33;0.33;;;;;18.49;72.41;101010.38;5076992;27;45548;-74
2022/10/22 08:11:55;;;;;;;;;2.50;2.00;;;;;18.65;72.77;101036.00;5109944;27;46112;-74
2022/10/22 08:14:21;;;;;;;;;3.00;2.33;;;;;18.21;72.09;100978.72;5077140;28;45434;-74
2022/10/22 08:16:46;;;;;;;;;1.00;1.00;;;;;18.70;72.59;101038.31;5077247;28;45404;-74
2022/10/22 08:19:12;;;;;;;;;1.25;1.25;;;;;18.80;72.62;101041.88;5076649;28;45400;-73
2022/10/22 08:21:38;;;;;;;;;1.33;0.67;;;;;18.81;71.19;101043.59;5077517;27;46967;-75
2022/10/22 08:24:05;;;;;;;;;3.00;1.00;;;;;18.89;71.71;101035.69;5077241;28;45445;-74
2022/10/22 08:26:30;;;;;;;;;2.00;1.00;;;;;19.03;71.57;101053.41;5077327;27;45451;-73
2022/10/22 08:28:56;;;;;;;;;0.67;0.67;;;;;18.99;71.30;101031.19;5078177;27;45297;-73
2022/10/22 08:31:21;;;;;;;;;2.00;1.67;;;;;19.29;70.22;101050.16;5076799;27;45286;-72
2022/10/22 08:33:46;;;;;;;;;1.00;1.00;;;;;19.17;69.61;101015.13;5077320;28;45254;-73
2022/10/22 08:36:12;;;;;;;;;1.33;0.00;;;;;19.36;69.18;101032.38;5076857;28;45321;-73
2022/10/22 08:38:37;;;;;;;;;1.00;1.00;;;;;20.75;67.21;101032.81;5073941;28;45530;-75
2022/10/22 08:41:08;;;;;;;;;2.00;2.00;;;;;23.52;57.75;101036.91;5075918;28;45468;-74
2022/10/22 08:44:02;;;;;;;;;1.00;1.00;;;;;27.16;50.81;101034.38;5077207;28;45405;-75
2022/10/22 08:47:03;;;;;;;;;2.33;2.00;;;;;29.15;44.32;100969.31;5076417;28;45571;-75
2022/10/22 08:49:35;;;;;;;;;5.33;1.67;;;;;30.83;40.28;101030.47;5076593;28;45453;-75
2022/10/22 08:52:01;;;;;;;;;2.00;2.00;;;;;29.59;42.05;101046.72;5076447;27;47381;-75
2022/10/22 08:54:47;;;;;;;;;0.00;0.00;;;;;26.97;46.60;101051.44;5076487;27;45309;-76
2022/10/22 08:57:21;;;;;;;;;2.33;1.00;;;;;26.03;48.72;101052.81;5076517;27;45239;-75
2022/10/22 09:00:02;;;;;;;;;0.00;0.00;;;;;25.15;49.11;100927.53;5073364;28;45334;-74
2022/10/22 09:02:56;;;;;;;;;2.00;1.00;;;;;27.64;47.13;101049.41;5075084;27;45487;-74
2022/10/22 09:05:22;;;;;;;;;1.00;1.00;;;;;28.89;44.74;101051.59;5075513;27;45323;-74
2022/10/22 09:07:49;;;;;;;;;1.00;1.00;;;;;29.12;43.28;100977.09;5076269;27;45396;-74
2022/10/22 09:10:17;;;;;;;;;0.67;0.67;;;;;29.49;42.33;101003.19;5072225;27;45495;-74
2022/10/22 09:12:43;;;;;;;;;1.00;1.00;;;;;29.99;41.18;101060.50;5080720;27;46938;-74
2022/10/22 09:15:17;;;;;;;;;0.33;0.33;;;;;29.85;40.70;101001.91;5081566;27;45284;-74
2022/10/22 09:18:36;;;;;;;;;0.67;0.67;;;;;30.63;40.79;101049.81;5086981;27;45385;-74
2022/10/22 09:21:24;;;;;;;;;1.00;1.00;;;;;30.09;40.46;101046.31;4998760;28;45828;-75
2022/10/22 09:24:00;;;;;;;;;2.00;0.67;;;;;30.08;39.68;101043.78;4995117;28;45431;-75
2022/10/22 09:26:26;;;;;;;;;0.00;0.00;;;;;30.15;41.34;101022.59;4999260;28;45372;-75
2022/10/22 09:28:52;;;;;;;;;0.00;0.00;;;;;30.93;38.43;101059.44;5012807;28;45437;-74
2022/10/22 09:31:17;;;;;;;;;0.00;0.00;;;;;30.45;37.69;101061.53;4999940;28;45353;-74
2022/10/22 09:33:46;;;;;;;;;0.00;0.00;;;;;30.20;38.69;101053.06;5007727;28;46469;-75
2022/10/22 09:36:16;;;;;;;;;0.00;0.00;;;;;29.62;41.08;101067.44;5008019;28;45539;-74
2022/10/22 09:38:48;;;;;;;;;1.67;0.00;;;;;31.54;37.90;101058.91;5003096;28;45388;-74
2022/10/22 09:41:14;;;;;;;;;0.33;0.33;;;;;32.30;35.49;101042.41;4988089;28;45354;-75
2022/10/22 09:43:39;;;;;;;;;0.00;0.00;;;;;32.90;34.49;101059.38;4994002;28;46142;-75
2022/10/22 09:46:16;;;;;;;;;0.33;0.00;;;;;32.85;35.13;101049.00;4994547;28;45369;-75
2022/10/22 09:48:46;;;;;;;;;2.00;0.00;;;;;32.46;36.15;101045.59;5000308;28;45543;-74
2022/10/22 09:51:15;;;;;;;;;0.33;0.33;;;;;31.37;35.93;101044.00;4992787;28;45534;-75
2022/10/22 09:53:43;;;;;;;;;0.00;0.00;;;;;30.66;38.99;101032.88;4995889;28;45385;-74
2022/10/22 09:56:19;;;;;;;;;0.67;0.33;;;;;30.01;40.14;101035.53;5075827;28;45481;-74
2022/10/22 09:58:48;;;;;;;;;0.00;0.00;;;;;29.43;39.42;101036.97;5078879;28;45430;-75
2022/10/22 10:01:25;;;;;;;;;1.00;1.00;;;;;28.70;40.87;101041.16;5078015;28;45517;-75
2022/10/22 10:04:11;;;;;;;;;1.00;0.67;;;;;28.08;44.62;101023.69;5077583;28;45632;-76
2022/10/22 10:06:39;;;;;;;;;1.00;0.00;;;;;28.13;44.11;101034.91;5093731;27;45460;-76
2022/10/22 10:09:15;;;;;;;;;0.00;0.00;;;;;27.84;44.65;101039.50;5080685;27;45385;-75
2022/10/22 10:11:58;;;;;;;;;0.00;0.00;;;;;27.44;43.98;101041.00;5077604;27;45709;-75
2022/10/22 10:14:45;;;;;;;;;0.00;0.00;;;;;27.18;46.20;101032.31;5080519;27;45368;-74
2022/10/22 10:17:46;;;;;;;;;1.33;0.00;;;;;26.96;46.43;101041.53;5063741;27;46008;-74
2022/10/22 10:20:39;;;;;;;;;2.00;0.00;;;;;26.72;46.91;101040.78;5086035;27;45434;-73
2022/10/22 10:23:14;;;;;;;;;1.00;1.00;;;;;26.56;47.18;101038.25;5093806;27;45316;-74
2022/10/22 10:25:58;;;;;;;;;0.00;0.00;;;;;26.31;47.31;101039.38;5081114;27;47158;-74
2022/10/22 10:28:35;;;;;;;;;0.00;0.00;;;;;25.88;47.61;101033.63;5091513;27;45468;-73
2022/10/22 10:31:09;;;;;;;;;0.00;0.00;;;;;25.71;48.59;101041.09;5079658;27;45642;-74
2022/10/22 10:34:04;;;;;;;;;0.00;0.00;;;;;25.55;48.81;101043.97;5090176;27;45335;-74
2022/10/22 10:36:30;;;;;;;;;0.00;0.00;;;;;25.26;50.24;101046.34;5092552;27;46512;-74
2022/10/22 10:39:17;;;;;;;;;0.00;0.00;;;;;25.15;49.73;101050.34;5079043;27;45339;-74
2022/10/22 10:41:58;;;;;;;;;0.00;0.00;;;;;24.99;51.15;101055.91;5089353;27;45337;-73
2022/10/22 10:44:58;;;;;;;;;0.67;0.00;;;;;24.82;51.19;101055.13;5091655;27;45423;-74
2022/10/22 10:47:46;;;;;;;;;0.67;0.67;;;;;24.63;51.80;101045.50;5065540;27;45375;-74
2022/10/22 10:50:37;;;;;;;;;0.00;0.00;;;;;24.47;52.34;101049.09;5077537;27;45339;-73
2022/10/22 10:53:23;;;;;;;;;3.00;0.00;;;;;24.07;52.42;100980.06;5076021;28;45463;-74
2022/10/22 10:56:10;;;;;;;;;0.00;0.00;;;;;24.51;52.27;101048.56;5075803;28;45317;-74
2022/10/22 10:58:49;;;;;;;;;0.00;0.00;;;;;24.44;52.78;101042.13;5074946;28;45484;-74
2022/10/22 11:01:31;;;;;;;;;2.00;0.33;;;;;24.44;53.34;101047.59;5078940;28;45456;-73
2022/10/22 11:04:03;;;;;;;;;0.33;0.33;;;;;24.19;53.99;101000.47;5074179;27;45511;-68
2022/10/22 11:06:31;;;;;;;;;0.00;0.00;;;;;24.43;52.29;101048.59;5072292;28;45638;-70
2022/10/22 11:09:04;;;;;;;;;0.00;0.00;;;;;24.29;53.83;101054.75;5073218;28;46428;-69
2022/10/22 11:11:44;;;;;;;;;0.00;0.00;;;;;24.14;52.06;101051.91;5074623;28;45499;-73
2022/10/22 11:14:31;;;;;;;;;2.00;0.67;;;;;24.00;52.46;101042.56;5097603;27;45517;-72
2022/10/22 11:17:13;;;;;;;;;2.00;0.00;;;;;24.07;52.67;101045.44;5075447;27;45986;-73
2022/10/22 11:19:54;;;;;;;;;1.00;0.00;;;;;24.00;52.78;101053.47;5090767;27;46239;-72
2022/10/22 11:22:36;;;;;;;;;2.67;1.00;;;;;23.95;53.96;101056.69;5083248;27;45397;-72
2022/10/22 11:25:04;;;;;;;;;0.33;0.33;;;;;23.94;54.61;101044.09;5081258;27;45467;-73
2022/10/22 11:27:46;;;;;;;;;0.33;0.33;;;;;24.16;53.57;101047.97;5092122;27;45683;-73
2022/10/22 11:30:17;;;;;;;;;1.00;1.00;;;;;24.22;52.04;101026.50;5081591;27;45397;-74
2022/10/22 11:32:54;;;;;;;;;0.00;0.00;;;;;24.19;52.16;101014.09;5083594;27;45377;-72
2022/10/22 11:35:26;;;;;;;;;0.00;0.00;;;;;24.30;52.83;101040.13;5091986;27;45484;-72
2022/10/22 11:37:55;;;;;;;;;2.67;1.67;;;;;24.35;52.18;101030.38;5077153;27;45390;-73
2022/10/22 11:40:27;;;;;;;;;0.00;0.00;;;;;24.39;52.74;101033.63;5094438;27;47098;-74